createdAt,value
2023-03-19T00:01:06.495Z,6.63
2023-03-19T00:03:35.281Z,9.27
2023-03-19T00:06:05.561Z,5.72
2023-03-19T00:08:34.003Z,6.30
2023-03-19T00:11:08.764Z,7.00
2023-03-19T00:13:37.582Z,7.38
2023-03-19T00:16:07.020Z,6.20
2023-03-19T00:18:35.539Z,6.03
2023-03-19T00:21:05.827Z,5.88
2023-03-19T00:23:34.138Z,6.45
2023-03-19T00:26:02.447Z,9.02
2023-03-19T00:28:31.401Z,5.63
2023-03-19T00:31:07.369Z,4.38
2023-03-19T00:33:35.618Z,5.85
2023-03-19T00:36:07.117Z,8.85
2023-03-19T00:38:36.699Z,5.28
2023-03-19T00:41:06.512Z,9.73
2023-03-19T00:43:35.116Z,5.47
2023-03-19T00:46:03.647Z,9.63
2023-03-19T00:48:32.150Z,6.35
2023-03-19T00:51:06.108Z,7.22
2023-03-19T00:53:34.823Z,8.02
2023-03-19T00:56:03.027Z,6.82
2023-03-19T00:58:31.306Z,10.80
2023-03-19T01:00:59.728Z,6.38
2023-03-19T01:03:28.103Z,8.18
2023-03-19T01:05:56.338Z,9.95
2023-03-19T01:08:26.226Z,7.88
2023-03-19T01:10:54.752Z,9.57
2023-03-19T01:13:23.111Z,7.82
2023-03-19T01:15:54.567Z,9.52
2023-03-19T01:18:23.141Z,9.15
2023-03-19T01:20:51.600Z,7.93
2023-03-19T01:23:20.038Z,11.48
2023-03-19T01:25:49.746Z,12.02
2023-03-19T01:28:18.286Z,9.18
2023-03-19T01:30:46.712Z,12.85
2023-03-19T01:33:15.549Z,11.55
2023-03-19T01:35:46.332Z,13.77
2023-03-19T01:38:14.710Z,13.00
2023-03-19T01:40:47.596Z,14.40
2023-03-19T01:43:23.755Z,14.27
2023-03-19T01:45:57.293Z,17.95
2023-03-19T01:48:34.201Z,19.67
2023-03-19T01:51:03.152Z,21.92
2023-03-19T01:53:35.040Z,19.33
2023-03-19T01:56:11.538Z,20.05
2023-03-19T01:58:43.275Z,24.10
2023-03-19T02:01:12.049Z,20.48
2023-03-19T02:03:41.438Z,24.30
2023-03-19T02:06:12.309Z,20.35
2023-03-19T02:08:42.008Z,20.88
2023-03-19T02:11:10.445Z,22.85
2023-03-19T02:13:39.064Z,18.42
2023-03-19T02:16:09.994Z,19.02
2023-03-19T02:18:38.579Z,20.50
2023-03-19T02:21:10.262Z,19.55
2023-03-19T02:23:46.814Z,18.27
2023-03-19T02:26:18.082Z,21.33
2023-03-19T02:28:49.816Z,19.08
2023-03-19T02:31:20.674Z,20.20
2023-03-19T02:34:00.637Z,17.70
2023-03-19T02:36:34.774Z,19.23
2023-03-19T02:39:05.449Z,20.55
2023-03-19T02:41:38.461Z,20.40
2023-03-19T02:44:07.595Z,18.17
2023-03-19T02:46:36.186Z,18.92
2023-03-19T02:49:05.520Z,20.20
2023-03-19T02:51:34.401Z,20.52
2023-03-19T02:54:02.808Z,19.92
2023-03-19T02:56:31.575Z,18.15
2023-03-19T02:59:01.500Z,21.98
2023-03-19T03:01:30.192Z,23.65
2023-03-19T03:03:58.637Z,19.75
2023-03-19T03:06:26.938Z,22.33
2023-03-19T03:08:55.639Z,22.33
2023-03-19T03:11:24.068Z,21.90
2023-03-19T03:13:53.662Z,19.95
2023-03-19T03:16:23.412Z,23.80
2023-03-19T03:18:51.930Z,22.15
2023-03-19T03:21:21.716Z,21.88
2023-03-19T03:23:50.042Z,24.98
2023-03-19T03:26:18.380Z,24.20
2023-03-19T03:28:46.863Z,25.23
2023-03-19T03:31:15.739Z,24.55
2023-03-19T03:33:45.872Z,27.45
2023-03-19T03:36:14.471Z,29.77
2023-03-19T03:38:42.774Z,27.80
2023-03-19T03:41:11.147Z,31.15
2023-03-19T03:43:39.584Z,29.23
2023-03-19T03:46:08.785Z,27.83
2023-03-19T03:48:37.378Z,33.10
2023-03-19T03:51:07.813Z,30.90
2023-03-19T03:53:36.102Z,34.65
2023-03-19T03:56:04.571Z,37.03
2023-03-19T03:58:33.241Z,37.22
2023-03-19T04:01:01.531Z,41.45
2023-03-19T04:03:29.996Z,40.30
2023-03-19T04:05:58.372Z,45.90
2023-03-19T04:08:28.303Z,47.00
2023-03-19T04:10:56.600Z,46.10
2023-03-19T04:13:25.489Z,48.78
2023-03-19T04:15:54.592Z,44.97
2023-03-19T04:18:23.007Z,49.00
2023-03-19T04:20:51.734Z,51.08
2023-03-19T04:23:19.988Z,48.00
2023-03-19T04:25:49.903Z,48.03
2023-03-19T04:28:18.237Z,52.25
2023-03-19T04:30:46.615Z,53.60
2023-03-19T04:33:14.943Z,55.60
2023-03-19T04:35:43.390Z,57.17
2023-03-19T04:38:11.813Z,52.85
2023-03-19T04:40:40.110Z,49.85
2023-03-19T04:43:09.860Z,51.40
2023-03-19T04:45:38.186Z,55.22
2023-03-19T04:48:07.082Z,53.25
2023-03-19T04:50:35.860Z,56.08
2023-03-19T04:53:04.276Z,64.75
2023-03-19T04:55:32.758Z,63.85
2023-03-19T04:58:01.542Z,58.80
2023-03-19T05:00:32.220Z,64.03
2023-03-19T05:03:00.866Z,61.80
2023-03-19T05:05:29.297Z,60.95
2023-03-19T05:07:58.509Z,58.90
2023-03-19T05:10:26.829Z,64.03
2023-03-19T05:12:55.104Z,59.95
2023-03-19T05:15:23.837Z,60.13
2023-03-19T05:17:53.664Z,64.60
2023-03-19T05:20:22.214Z,58.67
2023-03-19T05:22:50.643Z,59.33
2023-03-19T05:25:19.324Z,63.72
2023-03-19T05:27:47.892Z,63.50
2023-03-19T05:30:18.196Z,62.97
2023-03-19T05:32:47.184Z,56.53
2023-03-19T05:35:17.483Z,59.78
2023-03-19T05:37:46.114Z,57.58
2023-03-19T05:40:14.935Z,56.75
2023-03-19T05:42:43.539Z,60.17
2023-03-19T05:45:12.850Z,57.60
2023-03-19T05:47:41.282Z,52.75
2023-03-19T05:50:11.830Z,54.50
2023-03-19T05:52:42.213Z,54.67
2023-03-19T05:55:11.178Z,48.42
2023-03-19T05:57:39.711Z,45.75
2023-03-19T06:00:10.463Z,48.05
2023-03-19T06:02:39.566Z,44.17
2023-03-19T06:05:09.244Z,43.63
2023-03-19T06:07:39.280Z,40.42
2023-03-19T06:10:10.975Z,37.08
2023-03-19T06:12:39.925Z,36.83
2023-03-19T06:15:10.526Z,36.50
2023-03-19T06:17:39.332Z,35.55
2023-03-19T06:20:08.441Z,32.17
2023-03-19T06:22:36.961Z,33.70
2023-03-19T06:25:06.819Z,33.13
2023-03-19T06:27:36.722Z,31.98
2023-03-19T06:30:06.348Z,36.10
2023-03-19T06:32:35.066Z,36.03
2023-03-19T06:35:03.587Z,34.17
2023-03-19T06:37:33.172Z,36.08
2023-03-19T06:40:01.867Z,37.55
2023-03-19T06:42:31.357Z,35.70
2023-03-19T06:45:01.751Z,33.90
2023-03-19T06:47:30.274Z,36.15
2023-03-19T06:49:59.746Z,37.95
2023-03-19T06:52:28.473Z,36.30
2023-03-19T06:54:56.866Z,36.90
2023-03-19T06:57:25.658Z,37.63
2023-03-19T06:59:54.175Z,33.22
2023-03-19T07:02:24.484Z,37.58
2023-03-19T07:04:52.933Z,37.20
2023-03-19T07:07:22.286Z,37.17
2023-03-19T07:09:53.307Z,36.60
2023-03-19T07:12:21.754Z,38.88
2023-03-19T07:14:50.039Z,41.03
2023-03-19T07:17:19.580Z,42.92
2023-03-19T07:19:49.477Z,40.90
2023-03-19T07:22:18.036Z,38.70
2023-03-19T07:24:46.531Z,40.33
2023-03-19T07:27:15.154Z,41.25
2023-03-19T07:29:43.433Z,40.58
2023-03-19T07:32:13.487Z,41.17
2023-03-19T07:34:42.431Z,40.63
2023-03-19T07:37:13.045Z,42.67
2023-03-19T07:39:41.573Z,40.67
2023-03-19T07:42:10.256Z,46.72
2023-03-19T07:44:38.585Z,46.53
2023-03-19T07:47:16.052Z,49.35
2023-03-19T07:49:51.108Z,53.88
2023-03-19T07:52:22.283Z,41.63
2023-03-19T07:54:52.418Z,48.63
2023-03-19T07:57:21.043Z,48.45
2023-03-19T07:59:49.448Z,51.83
2023-03-19T08:02:22.698Z,49.97
2023-03-19T08:04:56.684Z,50.85
2023-03-19T08:07:27.511Z,55.28
2023-03-19T08:09:57.600Z,53.60
2023-03-19T08:12:26.207Z,58.85
2023-03-19T08:14:54.888Z,56.95
2023-03-19T08:17:23.254Z,69.60
2023-03-19T08:19:51.701Z,75.97
2023-03-19T08:22:20.372Z,85.95
2023-03-19T08:24:50.247Z,91.10
2023-03-19T08:27:18.714Z,99.53
2023-03-19T08:29:47.122Z,105.15
2023-03-19T08:32:16.198Z,109.75
2023-03-19T08:34:44.780Z,108.18
2023-03-19T08:37:13.564Z,117.03
2023-03-19T08:39:42.462Z,113.05
2023-03-19T08:42:12.948Z,116.40
2023-03-19T08:44:41.216Z,116.30
2023-03-19T08:47:12.177Z,114.82
2023-03-19T08:49:40.891Z,123.22
2023-03-19T08:52:09.888Z,120.70
2023-03-19T08:54:38.364Z,114.55
2023-03-19T08:57:07.145Z,110.03
2023-03-19T08:59:36.958Z,107.93
2023-03-19T09:02:05.939Z,115.95
2023-03-19T09:04:37.373Z,110.93
2023-03-19T09:07:06.236Z,116.15
2023-03-19T09:09:35.280Z,117.65
2023-03-19T09:12:03.772Z,109.95
2023-03-19T09:14:32.693Z,108.82
2023-03-19T09:17:03.809Z,106.82
2023-03-19T09:19:33.239Z,106.10
2023-03-19T09:22:02.010Z,100.10
2023-03-19T09:24:30.414Z,102.28
2023-03-19T09:26:58.781Z,101.72
2023-03-19T09:29:27.058Z,99.63
2023-03-19T09:31:55.736Z,108.00
2023-03-19T09:34:25.863Z,96.85
2023-03-19T09:36:54.214Z,100.20
2023-03-19T09:39:22.504Z,94.20
2023-03-19T09:42:04.497Z,94.15
2023-03-19T09:44:37.897Z,93.13
2023-03-19T09:47:25.859Z,101.40
2023-03-19T09:49:58.884Z,99.43
2023-03-19T09:52:45.408Z,89.53
2023-03-19T09:55:32.560Z,80.97
2023-03-19T09:58:02.236Z,76.78
2023-03-19T10:00:35.454Z,80.55
2023-03-19T10:03:12.846Z,68.25
2023-03-19T10:05:54.168Z,71.20
2023-03-19T10:08:46.255Z,69.47
2023-03-19T10:11:38.970Z,67.38
2023-03-19T10:14:28.526Z,64.80
2023-03-19T10:16:59.911Z,67.60
2023-03-19T10:19:40.940Z,67.22
2023-03-19T10:22:18.100Z,67.82
2023-03-19T10:24:49.538Z,63.80
2023-03-19T10:27:20.859Z,66.28
2023-03-19T10:29:50.302Z,69.10
2023-03-19T10:32:24.225Z,65.53
2023-03-19T10:34:54.355Z,66.47
2023-03-19T10:37:27.965Z,65.82
2023-03-19T10:39:59.362Z,63.80
2023-03-19T10:42:49.511Z,62.15
2023-03-19T10:45:27.876Z,57.15
2023-03-19T10:47:58.927Z,58.85
2023-03-19T10:50:33.908Z,59.70
2023-03-19T10:53:33.467Z,61.58
2023-03-19T10:56:05.581Z,56.47
2023-03-19T10:58:37.012Z,55.47
2023-03-19T11:01:09.649Z,58.08
2023-03-19T11:03:40.914Z,62.28
2023-03-19T11:06:20.296Z,60.00
2023-03-19T11:09:01.098Z,59.53
2023-03-19T11:11:36.970Z,66.63
2023-03-19T11:14:11.448Z,59.97
2023-03-19T11:16:52.594Z,62.40
2023-03-19T11:19:24.181Z,55.28
2023-03-19T11:22:09.294Z,57.20
2023-03-19T11:24:42.084Z,60.67
2023-03-19T11:27:12.714Z,57.95
2023-03-19T11:29:43.766Z,55.35
2023-03-19T11:32:54.006Z,54.10
2023-03-19T11:35:26.593Z,50.85
2023-03-19T11:37:57.604Z,52.85
2023-03-19T11:40:40.502Z,48.00
2023-03-19T11:43:38.419Z,52.47
2023-03-19T11:46:21.765Z,52.10
2023-03-19T11:49:16.984Z,46.08
2023-03-19T11:51:52.388Z,46.22
2023-03-19T11:54:31.677Z,53.75
2023-03-19T11:57:09.213Z,55.20
2023-03-19T12:00:08.174Z,49.42
2023-03-19T12:03:25.790Z,51.60
2023-03-19T12:06:00.746Z,54.28
2023-03-19T12:08:40.732Z,50.38
2023-03-19T12:11:22.672Z,55.75
2023-03-19T12:14:10.399Z,48.35
2023-03-19T12:16:57.706Z,48.78
2023-03-19T12:19:43.746Z,54.17
2023-03-19T12:22:28.521Z,42.30
2023-03-19T12:25:25.155Z,51.83
2023-03-19T12:27:59.329Z,48.08
2023-03-19T12:30:38.462Z,54.17
2023-03-19T12:33:23.326Z,49.60
2023-03-19T12:35:56.142Z,49.47
2023-03-19T12:38:43.267Z,47.65
2023-03-19T12:41:16.386Z,53.75
2023-03-19T12:43:53.608Z,54.05
2023-03-19T12:46:30.225Z,56.33
2023-03-19T12:49:04.176Z,64.68
2023-03-19T12:51:37.803Z,64.28
2023-03-19T12:54:21.731Z,62.85
2023-03-19T12:56:58.645Z,64.05
2023-03-19T12:59:35.635Z,68.20
2023-03-19T13:02:17.468Z,60.85
2023-03-19T13:04:54.551Z,63.97
2023-03-19T13:07:30.123Z,65.60
2023-03-19T13:10:08.127Z,61.00
2023-03-19T13:12:38.781Z,64.63
2023-03-19T13:15:14.218Z,60.85
2023-03-19T13:20:36.397Z,61.03
2023-03-19T13:23:07.013Z,65.55
2023-03-19T13:25:44.326Z,61.95
2023-03-19T13:28:19.990Z,64.95
2023-03-19T13:31:07.780Z,61.80
2023-03-19T13:33:44.030Z,59.58
2023-03-19T13:36:18.047Z,63.97
2023-03-19T13:38:51.360Z,58.33
2023-03-19T13:41:52.249Z,63.85
2023-03-19T13:44:54.857Z,74.82
2023-03-19T13:47:42.421Z,65.57
2023-03-19T13:50:34.138Z,62.80
2023-03-19T13:53:34.710Z,73.22
2023-03-19T13:56:15.693Z,66.85
2023-03-19T13:58:56.475Z,68.30
2023-03-19T14:01:47.687Z,68.68
2023-03-19T14:04:22.015Z,62.83
2023-03-19T14:06:55.135Z,66.32
2023-03-19T14:09:40.106Z,65.32
2023-03-19T14:12:33.437Z,69.55
2023-03-19T14:15:18.975Z,63.35
2023-03-19T14:17:57.818Z,64.20
2023-03-19T14:20:37.113Z,63.25
2023-03-19T14:23:36.082Z,67.90
2023-03-19T14:26:14.323Z,62.55
2023-03-19T14:28:53.474Z,63.92
2023-03-19T14:31:32.965Z,60.13
2023-03-19T14:34:10.794Z,56.17
2023-03-19T14:36:45.372Z,67.78
2023-03-19T14:39:23.633Z,61.45
2023-03-19T14:41:59.915Z,61.55
2023-03-19T14:45:43.094Z,56.88
2023-03-19T14:48:25.357Z,65.15
2023-03-19T14:51:40.747Z,58.50
2023-03-19T14:54:29.619Z,62.47
2023-03-19T14:57:01.373Z,54.42
2023-03-19T14:59:40.081Z,56.40
2023-03-19T15:02:33.163Z,53.42
2023-03-19T15:05:03.691Z,52.38
2023-03-19T15:07:40.747Z,57.95
2023-03-19T15:10:19.654Z,51.17
2023-03-19T15:13:14.714Z,46.67
2023-03-19T15:16:19.376Z,50.00
2023-03-19T15:18:47.957Z,52.13
2023-03-19T15:21:18.451Z,48.45
2023-03-19T15:23:48.700Z,50.25
2023-03-19T15:26:32.306Z,54.80
2023-03-19T15:29:00.960Z,52.38
2023-03-19T15:31:54.003Z,57.85
2023-03-19T15:34:31.296Z,53.50
2023-03-19T15:37:05.759Z,54.17
2023-03-19T15:39:39.319Z,57.58
2023-03-19T15:42:09.932Z,59.28
2023-03-19T15:44:45.645Z,57.53
2023-03-19T15:47:19.098Z,62.40
2023-03-19T15:49:57.444Z,62.50
2023-03-19T15:52:27.274Z,65.00
2023-03-19T15:54:56.969Z,58.50
2023-03-19T15:57:30.601Z,65.03
2023-03-19T16:00:02.737Z,60.90
2023-03-19T16:02:33.880Z,66.18
2023-03-19T16:05:21.042Z,61.88
2023-03-19T16:07:58.290Z,51.80
2023-03-19T16:10:41.020Z,52.05
2023-03-19T16:13:32.066Z,53.83
2023-03-19T16:16:08.700Z,58.70
2023-03-19T16:18:50.690Z,46.00
2023-03-19T16:21:22.107Z,44.78
2023-03-19T16:23:59.272Z,38.40
2023-03-19T16:26:31.814Z,39.00
2023-03-19T16:29:09.592Z,38.80
2023-03-19T16:31:46.553Z,38.45
2023-03-19T16:34:43.116Z,35.63
2023-03-19T16:37:42.290Z,38.45
2023-03-19T16:40:44.783Z,41.58
2023-03-19T16:43:19.395Z,43.10
2023-03-19T16:46:04.556Z,44.85
2023-03-19T16:48:33.043Z,45.47
2023-03-19T16:51:01.548Z,42.50
2023-03-19T16:53:33.153Z,45.72
2023-03-19T16:56:03.427Z,48.75
2023-03-19T16:58:42.510Z,46.33
2023-03-19T17:01:19.473Z,51.53
2023-03-19T17:03:50.670Z,45.92
2023-03-19T17:06:20.356Z,48.78
2023-03-19T17:08:48.958Z,47.85
2023-03-19T17:11:25.544Z,53.30
2023-03-19T17:13:55.892Z,58.63
2023-03-19T17:16:27.475Z,59.88
2023-03-19T17:18:57.740Z,56.25
2023-03-19T17:21:28.778Z,59.40
2023-03-19T17:23:58.050Z,54.63
2023-03-19T17:26:29.422Z,63.58
2023-03-19T17:28:58.646Z,62.60
2023-03-19T17:31:32.993Z,65.30
2023-03-19T17:34:05.886Z,60.00
2023-03-19T17:36:34.843Z,69.15
2023-03-19T17:39:03.828Z,63.30
2023-03-19T17:41:35.694Z,61.58
2023-03-19T17:44:06.590Z,67.32
2023-03-19T17:46:40.827Z,68.80
2023-03-19T17:49:20.382Z,74.90
2023-03-19T17:51:49.150Z,71.90
2023-03-19T17:54:17.938Z,69.18
2023-03-19T17:56:47.425Z,66.93
2023-03-19T17:59:16.136Z,65.47
2023-03-19T18:01:47.215Z,68.32
2023-03-19T18:04:18.414Z,65.05
2023-03-19T18:06:50.807Z,66.13
2023-03-19T18:09:23.126Z,70.63
2023-03-19T18:11:51.898Z,68.07
2023-03-19T18:14:20.293Z,74.25
2023-03-19T18:16:50.230Z,69.38
2023-03-19T18:19:25.454Z,65.80
2023-03-19T18:21:53.889Z,67.55
2023-03-19T18:24:22.336Z,61.92
2023-03-19T18:26:50.756Z,52.70
2023-03-19T18:29:19.033Z,54.15
2023-03-19T18:31:51.479Z,46.42
2023-03-19T18:34:20.243Z,52.42
2023-03-19T18:36:48.859Z,50.60
2023-03-19T18:39:17.892Z,43.47
2023-03-19T18:41:46.439Z,47.10
2023-03-19T18:44:14.842Z,54.90
2023-03-19T18:46:44.055Z,55.05
2023-03-19T18:49:39.224Z,49.10
2023-03-19T18:52:07.912Z,46.00
2023-03-19T18:54:36.224Z,43.22
2023-03-19T18:57:05.822Z,51.45
2023-03-19T18:59:35.768Z,49.85
2023-03-19T19:02:21.224Z,51.33
2023-03-19T19:04:51.194Z,54.03
2023-03-19T19:07:19.719Z,44.65
2023-03-19T19:09:48.090Z,50.08
2023-03-19T19:12:20.801Z,48.92
2023-03-19T19:14:49.770Z,40.28
2023-03-19T19:17:21.325Z,43.30
2023-03-19T19:19:51.335Z,42.05
2023-03-19T19:22:20.616Z,35.45
2023-03-19T19:24:49.172Z,30.15
2023-03-19T19:27:20.585Z,28.92
2023-03-19T19:29:49.856Z,28.50
2023-03-19T19:32:25.802Z,28.63
2023-03-19T19:34:56.475Z,29.35
2023-03-19T19:37:25.542Z,27.02
2023-03-19T19:39:54.271Z,24.40
2023-03-19T19:42:24.751Z,26.20
2023-03-19T19:44:56.075Z,25.88
2023-03-19T19:47:25.202Z,30.38
2023-03-19T19:49:56.455Z,25.80
2023-03-19T19:52:24.829Z,28.08
2023-03-19T19:54:53.182Z,26.58
2023-03-19T19:57:25.004Z,29.58
2023-03-19T19:59:55.451Z,33.08
2023-03-19T20:02:26.141Z,36.45
2023-03-19T20:04:56.792Z,35.05
2023-03-19T20:07:25.268Z,38.55
2023-03-19T20:09:53.560Z,36.45
2023-03-19T20:12:23.788Z,31.65
2023-03-19T20:14:53.042Z,32.90
2023-03-19T20:17:22.178Z,34.45
2023-03-19T20:19:50.946Z,42.80
2023-03-19T20:22:20.738Z,43.28
2023-03-19T20:24:51.242Z,45.17
2023-03-19T20:27:24.188Z,50.90
2023-03-19T20:29:54.300Z,55.90
2023-03-19T20:32:29.867Z,49.70
2023-03-19T20:34:59.356Z,55.25
2023-03-19T20:37:30.009Z,57.67
2023-03-19T20:39:59.501Z,57.97
2023-03-19T20:42:30.285Z,49.20
2023-03-19T20:45:01.359Z,53.00
2023-03-19T20:47:32.997Z,45.38
2023-03-19T20:50:02.074Z,51.00
2023-03-19T20:52:31.851Z,41.42
2023-03-19T20:55:00.931Z,39.10
2023-03-19T20:57:30.760Z,43.80
2023-03-19T21:00:13.032Z,37.42
2023-03-19T21:02:41.526Z,30.48
2023-03-19T21:05:13.379Z,27.30
2023-03-19T21:07:46.678Z,30.05
2023-03-19T21:10:29.994Z,25.55
2023-03-19T21:12:58.986Z,23.13
2023-03-19T21:15:28.656Z,24.92
2023-03-19T21:17:57.664Z,28.88
2023-03-19T21:20:28.956Z,20.98
2023-03-19T21:23:08.638Z,23.70
2023-03-19T21:25:38.155Z,21.55
2023-03-19T21:28:13.116Z,18.73
2023-03-19T21:30:45.041Z,31.45
2023-03-19T21:33:24.404Z,21.17
2023-03-19T21:35:53.398Z,19.27
2023-03-19T21:38:23.447Z,18.65
2023-03-19T21:40:55.166Z,17.58
2023-03-19T21:43:30.176Z,19.55
2023-03-19T21:45:58.940Z,12.57
2023-03-19T21:48:32.203Z,13.50
2023-03-19T21:51:02.415Z,12.77
2023-03-19T21:53:32.257Z,11.38
2023-03-19T21:56:02.361Z,12.95
2023-03-19T21:58:33.575Z,14.57
2023-03-19T22:01:09.181Z,15.73
2023-03-19T22:03:37.742Z,12.18
2023-03-19T22:06:07.553Z,13.07
2023-03-19T22:08:37.396Z,15.57
2023-03-19T22:11:17.253Z,11.45
2023-03-19T22:13:46.046Z,11.25
2023-03-19T22:16:20.717Z,10.98
2023-03-19T22:18:52.205Z,11.77
2023-03-19T22:21:23.574Z,14.32
2023-03-19T22:23:53.316Z,16.65
2023-03-19T22:26:32.173Z,18.90
2023-03-19T22:29:02.959Z,12.55
2023-03-19T22:31:32.530Z,18.95
2023-03-19T22:34:01.122Z,15.85
2023-03-19T22:36:29.786Z,15.27
2023-03-19T22:38:59.585Z,15.57
2023-03-19T22:41:34.202Z,24.48
2023-03-19T22:44:06.298Z,21.67
2023-03-19T22:46:35.182Z,26.02
2023-03-19T22:49:09.084Z,18.23
2023-03-19T22:51:37.667Z,21.20
2023-03-19T22:54:08.164Z,22.27
2023-03-19T22:56:36.445Z,17.17
2023-03-19T22:59:05.209Z,22.35
2023-03-19T23:01:41.531Z,24.95
2023-03-19T23:04:21.227Z,16.60
2023-03-19T23:06:51.918Z,19.92
2023-03-19T23:09:25.278Z,18.25
2023-03-19T23:11:54.893Z,24.65
2023-03-19T23:14:30.265Z,23.73
2023-03-19T23:17:03.093Z,21.90
2023-03-19T23:19:34.846Z,17.92
2023-03-19T23:22:05.656Z,22.17
2023-03-19T23:24:35.600Z,21.73
2023-03-19T23:27:04.931Z,25.33
2023-03-19T23:29:37.598Z,24.65
2023-03-19T23:32:06.502Z,22.40
2023-03-19T23:34:42.323Z,22.35
2023-03-19T23:37:14.322Z,22.23
2023-03-19T23:39:43.960Z,23.75
2023-03-19T23:42:20.586Z,23.80
2023-03-19T23:44:48.853Z,19.48
2023-03-19T23:47:17.463Z,20.83
2023-03-19T23:49:46.090Z,19.52
2023-03-19T23:52:15.550Z,18.10
2023-03-19T23:54:45.155Z,25.58
2023-03-19T23:57:16.697Z,26.00
2023-03-19T23:59:49.117Z,29.23
